sensor_id;sensor_type;location;lat;lon;timestamp;P1;durP1;ratioP1;P2;durP2;ratioP2
24086;SDS011;22893;50.572;7.234;2022-07-23T04:39:58;10.20;;;5.53;;
24086;SDS011;22893;50.572;7.234;2022-07-23T04:42:26;11.43;;;6.10;;
24086;SDS011;22893;50.572;7.234;2022-07-23T04:44:53;10.43;;;5.75;;
24086;SDS011;22893;50.572;7.234;2022-07-23T04:47:21;8.45;;;4.78;;
24086;SDS011;22893;50.572;7.234;2022-07-23T04:49:48;9.38;;;5.33;;
24086;SDS011;22893;50.572;7.234;2022-07-23T04:52:16;11.85;;;5.47;;
24086;SDS011;22893;50.572;7.234;2022-07-23T04:54:43;8.50;;;5.67;;
24086;SDS011;22893;50.572;7.234;2022-07-23T04:57:11;12.70;;;5.62;;
24086;SDS011;22893;50.572;7.234;2022-07-23T04:59:38;9.50;;;5.40;;
24086;SDS011;22893;50.572;7.234;2022-07-23T05:02:06;11.30;;;5.55;;
24086;SDS011;22893;50.572;7.234;2022-07-23T05:04:33;8.20;;;5.67;;
24086;SDS011;22893;50.572;7.234;2022-07-23T05:07:01;8.73;;;5.92;;
24086;SDS011;22893;50.572;7.234;2022-07-23T05:09:29;13.55;;;5.40;;
24086;SDS011;22893;50.572;7.234;2022-07-23T05:11:56;8.13;;;5.58;;
24086;SDS011;22893;50.572;7.234;2022-07-23T05:14:24;10.23;;;5.87;;
24086;SDS011;22893;50.572;7.234;2022-07-23T05:16:51;10.53;;;6.50;;
24086;SDS011;22893;50.572;7.234;2022-07-23T05:19:19;10.80;;;6.00;;
24086;SDS011;22893;50.572;7.234;2022-07-23T05:21:46;9.38;;;5.45;;
24086;SDS011;22893;50.572;7.234;2022-07-23T05:24:14;9.88;;;5.95;;
24086;SDS011;22893;50.572;7.234;2022-07-23T05:26:41;14.05;;;5.95;;
24086;SDS011;22893;50.572;7.234;2022-07-23T05:29:09;12.25;;;5.83;;
24086;SDS011;22893;50.572;7.234;2022-07-23T05:31:36;11.97;;;5.72;;
24086;SDS011;22893;50.572;7.234;2022-07-23T05:34:04;9.25;;;6.12;;
24086;SDS011;22893;50.572;7.234;2022-07-23T05:36:32;10.20;;;6.62;;
24086;SDS011;22893;50.572;7.234;2022-07-23T05:38:59;12.78;;;5.80;;
24086;SDS011;22893;50.572;7.234;2022-07-23T05:41:27;9.08;;;5.17;;
24086;SDS011;22893;50.572;7.234;2022-07-23T05:43:54;8.83;;;6.15;;
24086;SDS011;22893;50.572;7.234;2022-07-23T05:46:22;10.65;;;5.90;;
24086;SDS011;22893;50.572;7.234;2022-07-23T05:48:50;8.90;;;5.20;;
24086;SDS011;22893;50.572;7.234;2022-07-23T05:51:21;8.55;;;5.60;;
24086;SDS011;22893;50.572;7.234;2022-07-23T05:53:49;9.95;;;6.12;;
24086;SDS011;22893;50.572;7.234;2022-07-23T05:56:17;10.28;;;5.87;;
24086;SDS011;22893;50.572;7.234;2022-07-23T05:58:46;10.55;;;5.70;;
24086;SDS011;22893;50.572;7.234;2022-07-23T06:01:14;12.30;;;5.78;;
24086;SDS011;22893;50.572;7.234;2022-07-23T06:03:41;9.50;;;6.00;;
24086;SDS011;22893;50.572;7.234;2022-07-23T06:06:09;8.48;;;5.00;;
24086;SDS011;22893;50.572;7.234;2022-07-23T06:08:36;9.08;;;5.53;;
24086;SDS011;22893;50.572;7.234;2022-07-23T06:11:04;8.63;;;5.22;;
24086;SDS011;22893;50.572;7.234;2022-07-23T06:13:31;9.45;;;5.10;;
24086;SDS011;22893;50.572;7.234;2022-07-23T06:15:59;9.90;;;5.40;;
24086;SDS011;22893;50.572;7.234;2022-07-23T06:18:26;8.75;;;5.62;;
24086;SDS011;22893;50.572;7.234;2022-07-23T06:20:54;7.75;;;4.50;;
24086;SDS011;22893;50.572;7.234;2022-07-23T06:23:22;8.65;;;5.28;;
24086;SDS011;22893;50.572;7.234;2022-07-23T06:25:49;7.00;;;4.72;;
24086;SDS011;22893;50.572;7.234;2022-07-23T06:28:17;8.73;;;4.95;;
24086;SDS011;22893;50.572;7.234;2022-07-23T06:31:45;8.35;;;4.12;;
24086;SDS011;22893;50.572;7.234;2022-07-23T06:34:12;7.75;;;4.60;;
24086;SDS011;22893;50.572;7.234;2022-07-23T06:36:40;8.40;;;4.75;;
24086;SDS011;22893;50.572;7.234;2022-07-23T06:39:07;6.95;;;4.33;;
24086;SDS011;22893;50.572;7.234;2022-07-23T06:41:35;8.88;;;4.45;;
24086;SDS011;22893;50.572;7.234;2022-07-23T06:44:03;7.70;;;4.35;;
24086;SDS011;22893;50.572;7.234;2022-07-23T06:46:31;7.55;;;4.20;;
24086;SDS011;22893;50.572;7.234;2022-07-23T06:48:58;7.97;;;4.40;;
24086;SDS011;22893;50.572;7.234;2022-07-23T06:51:26;7.12;;;4.55;;
24086;SDS011;22893;50.572;7.234;2022-07-23T06:53:53;5.17;;;3.75;;
24086;SDS011;22893;50.572;7.234;2022-07-23T06:56:21;9.00;;;4.83;;
24086;SDS011;22893;50.572;7.234;2022-07-23T06:58:49;12.60;;;5.17;;
24086;SDS011;22893;50.572;7.234;2022-07-23T07:01:16;7.85;;;4.03;;
24086;SDS011;22893;50.572;7.234;2022-07-23T07:03:44;7.97;;;4.65;;
24086;SDS011;22893;50.572;7.234;2022-07-23T07:06:12;6.28;;;3.72;;
24086;SDS011;22893;50.572;7.234;2022-07-23T07:08:39;7.22;;;4.45;;
24086;SDS011;22893;50.572;7.234;2022-07-23T07:11:09;13.00;;;4.58;;
24086;SDS011;22893;50.572;7.234;2022-07-23T07:13:37;7.67;;;4.67;;
24086;SDS011;22893;50.572;7.234;2022-07-23T07:16:05;6.22;;;3.98;;
24086;SDS011;22893;50.572;7.234;2022-07-23T07:18:33;9.98;;;4.55;;
24086;SDS011;22893;50.572;7.234;2022-07-23T07:21:00;7.35;;;4.15;;
24086;SDS011;22893;50.572;7.234;2022-07-23T07:23:28;6.25;;;4.12;;
24086;SDS011;22893;50.572;7.234;2022-07-23T07:25:55;8.53;;;4.17;;
24086;SDS011;22893;50.572;7.234;2022-07-23T07:28:23;6.20;;;4.60;;
24086;SDS011;22893;50.572;7.234;2022-07-23T07:30:50;8.63;;;4.47;;
24086;SDS011;22893;50.572;7.234;2022-07-23T07:33:18;7.55;;;4.65;;
24086;SDS011;22893;50.572;7.234;2022-07-23T07:35:47;9.10;;;4.47;;
24086;SDS011;22893;50.572;7.234;2022-07-23T07:38:14;6.53;;;4.47;;
24086;SDS011;22893;50.572;7.234;2022-07-23T07:40:42;9.68;;;3.98;;
24086;SDS011;22893;50.572;7.234;2022-07-23T07:43:09;7.72;;;4.15;;
24086;SDS011;22893;50.572;7.234;2022-07-23T07:45:37;6.12;;;3.92;;
24086;SDS011;22893;50.572;7.234;2022-07-23T07:48:04;5.55;;;3.58;;
24086;SDS011;22893;50.572;7.234;2022-07-23T07:50:32;6.58;;;3.62;;
24086;SDS011;22893;50.572;7.234;2022-07-23T07:53:00;7.83;;;3.85;;
24086;SDS011;22893;50.572;7.234;2022-07-23T07:55:27;6.37;;;3.92;;
24086;SDS011;22893;50.572;7.234;2022-07-23T07:57:55;9.85;;;3.80;;
24086;SDS011;22893;50.572;7.234;2022-07-23T08:00:22;9.38;;;3.95;;
24086;SDS011;22893;50.572;7.234;2022-07-23T08:02:50;6.33;;;3.52;;
24086;SDS011;22893;50.572;7.234;2022-07-23T08:05:20;6.10;;;3.85;;
24086;SDS011;22893;50.572;7.234;2022-07-23T08:07:49;4.37;;;3.50;;
24086;SDS011;22893;50.572;7.234;2022-07-23T08:10:17;7.45;;;3.62;;
24086;SDS011;22893;50.572;7.234;2022-07-23T08:12:45;5.15;;;3.40;;
24086;SDS011;22893;50.572;7.234;2022-07-23T08:15:15;6.17;;;3.47;;
24086;SDS011;22893;50.572;7.234;2022-07-23T08:17:45;6.33;;;3.37;;
24086;SDS011;22893;50.572;7.234;2022-07-23T08:20:15;4.87;;;3.20;;
24086;SDS011;22893;50.572;7.234;2022-07-23T08:22:49;5.17;;;3.30;;
24086;SDS011;22893;50.572;7.234;2022-07-23T08:25:31;8.20;;;3.50;;
24086;SDS011;22893;50.572;7.234;2022-07-23T08:27:52;5.00;;;2.83;;
24086;SDS011;22893;50.572;7.234;2022-07-23T08:30:20;5.75;;;3.02;;
24086;SDS011;22893;50.572;7.234;2022-07-23T08:32:55;6.42;;;3.65;;
24086;SDS011;22893;50.572;7.234;2022-07-23T08:35:36;4.45;;;3.35;;
24086;SDS011;22893;50.572;7.234;2022-07-23T08:38:03;4.70;;;2.67;;
24086;SDS011;22893;50.572;7.234;2022-07-23T08:40:34;3.77;;;2.22;;
24086;SDS011;22893;50.572;7.234;2022-07-23T08:43:04;4.03;;;2.62;;
24086;SDS011;22893;50.572;7.234;2022-07-23T08:45:37;7.33;;;3.08;;
24086;SDS011;22893;50.572;7.234;2022-07-23T08:48:13;6.70;;;2.72;;
24086;SDS011;22893;50.572;7.234;2022-07-23T08:50:43;3.90;;;2.58;;
24086;SDS011;22893;50.572;7.234;2022-07-23T08:53:14;4.58;;;2.58;;
24086;SDS011;22893;50.572;7.234;2022-07-23T08:55:43;6.87;;;2.55;;
24086;SDS011;22893;50.572;7.234;2022-07-23T08:58:11;6.00;;;2.27;;
24086;SDS011;22893;50.572;7.234;2022-07-23T09:00:40;5.45;;;2.62;;
24086;SDS011;22893;50.572;7.234;2022-07-23T09:03:15;4.97;;;2.77;;
24086;SDS011;22893;50.572;7.234;2022-07-23T09:05:45;4.17;;;2.67;;
24086;SDS011;22893;50.572;7.234;2022-07-23T09:08:16;5.95;;;2.00;;
24086;SDS011;22893;50.572;7.234;2022-07-23T09:10:54;4.60;;;2.22;;
24086;SDS011;22893;50.572;7.234;2022-07-23T09:13:31;4.15;;;2.30;;
24086;SDS011;22893;50.572;7.234;2022-07-23T09:16:05;3.52;;;2.00;;
24086;SDS011;22893;50.572;7.234;2022-07-23T09:18:44;5.85;;;2.10;;
24086;SDS011;22893;50.572;7.234;2022-07-23T09:21:14;5.15;;;2.20;;
24086;SDS011;22893;50.572;7.234;2022-07-23T09:26:29;5.83;;;2.10;;
24086;SDS011;22893;50.572;7.234;2022-07-23T09:29:05;4.55;;;2.08;;
24086;SDS011;22893;50.572;7.234;2022-07-23T09:31:42;2.95;;;1.92;;
24086;SDS011;22893;50.572;7.234;2022-07-23T09:34:16;2.10;;;1.90;;
24086;SDS011;22893;50.572;7.234;2022-07-23T09:36:41;3.25;;;1.85;;
24086;SDS011;22893;50.572;7.234;2022-07-23T09:39:09;2.80;;;1.80;;
24086;SDS011;22893;50.572;7.234;2022-07-23T09:41:39;5.25;;;2.47;;
24086;SDS011;22893;50.572;7.234;2022-07-23T09:44:10;4.53;;;2.30;;
24086;SDS011;22893;50.572;7.234;2022-07-23T09:46:40;6.75;;;1.98;;
24086;SDS011;22893;50.572;7.234;2022-07-23T09:49:19;5.00;;;2.20;;
24086;SDS011;22893;50.572;7.234;2022-07-23T09:51:59;5.62;;;2.15;;
24086;SDS011;22893;50.572;7.234;2022-07-23T09:54:34;5.58;;;2.00;;
24086;SDS011;22893;50.572;7.234;2022-07-23T09:57:07;4.20;;;2.30;;
24086;SDS011;22893;50.572;7.234;2022-07-23T09:59:38;3.40;;;1.70;;
24086;SDS011;22893;50.572;7.234;2022-07-23T10:02:08;3.85;;;2.30;;
24086;SDS011;22893;50.572;7.234;2022-07-23T10:04:39;4.55;;;2.15;;
24086;SDS011;22893;50.572;7.234;2022-07-23T10:07:08;3.37;;;1.98;;
24086;SDS011;22893;50.572;7.234;2022-07-23T10:09:37;4.67;;;2.33;;
24086;SDS011;22893;50.572;7.234;2022-07-23T10:12:12;3.85;;;1.90;;
24086;SDS011;22893;50.572;7.234;2022-07-23T10:14:48;3.90;;;2.00;;
24086;SDS011;22893;50.572;7.234;2022-07-23T10:17:17;5.03;;;2.55;;
24086;SDS011;22893;50.572;7.234;2022-07-23T10:19:45;4.53;;;2.05;;
24086;SDS011;22893;50.572;7.234;2022-07-23T10:22:29;3.37;;;1.90;;
24086;SDS011;22893;50.572;7.234;2022-07-23T10:25:22;2.98;;;2.02;;
24086;SDS011;22893;50.572;7.234;2022-07-23T10:28:07;4.72;;;1.95;;
24086;SDS011;22893;50.572;7.234;2022-07-23T10:30:45;3.67;;;2.27;;
24086;SDS011;22893;50.572;7.234;2022-07-23T10:33:23;2.37;;;1.70;;
24086;SDS011;22893;50.572;7.234;2022-07-23T10:36:15;2.70;;;1.80;;
24086;SDS011;22893;50.572;7.234;2022-07-23T10:41:46;3.55;;;2.27;;
24086;SDS011;22893;50.572;7.234;2022-07-23T16:47:28;5.45;;;3.17;;
24086;SDS011;22893;50.572;7.234;2022-07-23T16:49:56;4.83;;;2.90;;
24086;SDS011;22893;50.572;7.234;2022-07-23T16:52:24;4.47;;;2.47;;
24086;SDS011;22893;50.572;7.234;2022-07-23T16:54:51;6.33;;;3.08;;
24086;SDS011;22893;50.572;7.234;2022-07-23T16:57:19;2.87;;;2.30;;
24086;SDS011;22893;50.572;7.234;2022-07-23T16:59:47;6.05;;;3.25;;
24086;SDS011;22893;50.572;7.234;2022-07-23T17:02:15;3.90;;;2.85;;
24086;SDS011;22893;50.572;7.234;2022-07-23T17:04:43;4.80;;;2.95;;
24086;SDS011;22893;50.572;7.234;2022-07-23T17:07:10;4.53;;;2.60;;
24086;SDS011;22893;50.572;7.234;2022-07-23T17:09:38;6.75;;;3.08;;
24086;SDS011;22893;50.572;7.234;2022-07-23T17:12:06;6.70;;;2.83;;
24086;SDS011;22893;50.572;7.234;2022-07-23T17:14:33;5.92;;;2.75;;
24086;SDS011;22893;50.572;7.234;2022-07-23T17:17:01;4.85;;;2.52;;
24086;SDS011;22893;50.572;7.234;2022-07-23T17:19:30;4.62;;;3.37;;
24086;SDS011;22893;50.572;7.234;2022-07-23T17:21:58;7.00;;;3.05;;
24086;SDS011;22893;50.572;7.234;2022-07-23T17:24:25;3.87;;;2.62;;
24086;SDS011;22893;50.572;7.234;2022-07-23T17:26:53;7.67;;;3.05;;
24086;SDS011;22893;50.572;7.234;2022-07-23T17:29:20;5.03;;;2.90;;
24086;SDS011;22893;50.572;7.234;2022-07-23T17:31:48;3.55;;;2.42;;
24086;SDS011;22893;50.572;7.234;2022-07-23T17:34:16;7.58;;;2.90;;
24086;SDS011;22893;50.572;7.234;2022-07-23T17:36:43;4.95;;;2.60;;
24086;SDS011;22893;50.572;7.234;2022-07-23T17:39:11;3.65;;;2.60;;
24086;SDS011;22893;50.572;7.234;2022-07-23T17:41:39;8.65;;;3.30;;
24086;SDS011;22893;50.572;7.234;2022-07-23T17:44:08;4.83;;;2.75;;
24086;SDS011;22893;50.572;7.234;2022-07-23T17:46:35;4.92;;;2.80;;
24086;SDS011;22893;50.572;7.234;2022-07-23T17:49:03;5.65;;;3.27;;
24086;SDS011;22893;50.572;7.234;2022-07-23T17:51:30;4.85;;;2.80;;
24086;SDS011;22893;50.572;7.234;2022-07-23T17:53:58;11.75;;;3.12;;
24086;SDS011;22893;50.572;7.234;2022-07-23T17:56:26;5.42;;;2.98;;
24086;SDS011;22893;50.572;7.234;2022-07-23T17:58:53;9.83;;;2.70;;
24086;SDS011;22893;50.572;7.234;2022-07-23T18:01:21;4.20;;;2.75;;
24086;SDS011;22893;50.572;7.234;2022-07-23T18:03:49;7.00;;;2.67;;
24086;SDS011;22893;50.572;7.234;2022-07-23T18:06:17;3.50;;;2.52;;
24086;SDS011;22893;50.572;7.234;2022-07-23T18:08:45;5.22;;;2.85;;
24086;SDS011;22893;50.572;7.234;2022-07-23T18:11:12;7.90;;;2.62;;
24086;SDS011;22893;50.572;7.234;2022-07-23T18:13:40;5.87;;;2.87;;
24086;SDS011;22893;50.572;7.234;2022-07-23T18:16:08;4.60;;;2.65;;
24086;SDS011;22893;50.572;7.234;2022-07-23T18:18:35;5.35;;;2.95;;
24086;SDS011;22893;50.572;7.234;2022-07-23T18:21:03;4.45;;;2.85;;
24086;SDS011;22893;50.572;7.234;2022-07-23T18:23:31;6.37;;;2.52;;
24086;SDS011;22893;50.572;7.234;2022-07-23T18:25:59;6.15;;;3.30;;
24086;SDS011;22893;50.572;7.234;2022-07-23T18:28:26;4.25;;;2.58;;
24086;SDS011;22893;50.572;7.234;2022-07-23T18:30:54;4.60;;;2.50;;
24086;SDS011;22893;50.572;7.234;2022-07-23T18:33:23;2.90;;;2.00;;
24086;SDS011;22893;50.572;7.234;2022-07-23T18:35:50;5.50;;;2.77;;
24086;SDS011;22893;50.572;7.234;2022-07-23T18:38:18;4.65;;;2.50;;
24086;SDS011;22893;50.572;7.234;2022-07-23T18:40:46;3.67;;;2.80;;
24086;SDS011;22893;50.572;7.234;2022-07-23T18:43:14;5.45;;;2.45;;
24086;SDS011;22893;50.572;7.234;2022-07-23T18:45:42;4.65;;;2.50;;
24086;SDS011;22893;50.572;7.234;2022-07-23T18:48:10;5.78;;;2.55;;
24086;SDS011;22893;50.572;7.234;2022-07-23T18:50:40;3.83;;;2.62;;
24086;SDS011;22893;50.572;7.234;2022-07-23T18:53:08;2.83;;;2.20;;
24086;SDS011;22893;50.572;7.234;2022-07-23T18:55:37;4.05;;;3.02;;
24086;SDS011;22893;50.572;7.234;2022-07-23T18:58:05;5.78;;;2.45;;
24086;SDS011;22893;50.572;7.234;2022-07-23T19:00:34;3.90;;;2.10;;
24086;SDS011;22893;50.572;7.234;2022-07-23T19:03:03;4.50;;;2.50;;
24086;SDS011;22893;50.572;7.234;2022-07-23T19:05:32;3.92;;;2.52;;
24086;SDS011;22893;50.572;7.234;2022-07-23T19:07:59;4.58;;;2.47;;
24086;SDS011;22893;50.572;7.234;2022-07-23T19:10:27;3.30;;;2.27;;
24086;SDS011;22893;50.572;7.234;2022-07-23T19:12:55;3.72;;;2.58;;
24086;SDS011;22893;50.572;7.234;2022-07-23T19:15:22;3.62;;;2.50;;
24086;SDS011;22893;50.572;7.234;2022-07-23T19:17:50;3.67;;;2.52;;
24086;SDS011;22893;50.572;7.234;2022-07-23T19:20:17;4.67;;;2.40;;
24086;SDS011;22893;50.572;7.234;2022-07-23T19:22:45;7.45;;;2.65;;
24086;SDS011;22893;50.572;7.234;2022-07-23T19:25:13;6.03;;;2.40;;
24086;SDS011;22893;50.572;7.234;2022-07-23T19:27:40;2.72;;;2.17;;
24086;SDS011;22893;50.572;7.234;2022-07-23T19:30:08;3.62;;;2.40;;
24086;SDS011;22893;50.572;7.234;2022-07-23T19:32:37;4.17;;;2.42;;
24086;SDS011;22893;50.572;7.234;2022-07-23T19:35:05;4.37;;;2.77;;
24086;SDS011;22893;50.572;7.234;2022-07-23T19:37:34;4.53;;;2.20;;
24086;SDS011;22893;50.572;7.234;2022-07-23T19:40:03;3.10;;;2.22;;
24086;SDS011;22893;50.572;7.234;2022-07-23T19:42:32;3.90;;;2.45;;
24086;SDS011;22893;50.572;7.234;2022-07-23T19:45:01;6.05;;;2.25;;
24086;SDS011;22893;50.572;7.234;2022-07-23T19:47:29;4.47;;;2.30;;
24086;SDS011;22893;50.572;7.234;2022-07-23T19:49:57;3.98;;;2.33;;
24086;SDS011;22893;50.572;7.234;2022-07-23T19:52:25;4.45;;;2.60;;
24086;SDS011;22893;50.572;7.234;2022-07-23T19:54:53;4.60;;;2.33;;
24086;SDS011;22893;50.572;7.234;2022-07-23T19:57:20;3.77;;;2.30;;
24086;SDS011;22893;50.572;7.234;2022-07-23T19:59:48;3.87;;;2.60;;
24086;SDS011;22893;50.572;7.234;2022-07-23T20:02:15;3.45;;;2.47;;
24086;SDS011;22893;50.572;7.234;2022-07-23T20:04:43;4.95;;;2.62;;
24086;SDS011;22893;50.572;7.234;2022-07-23T20:07:11;4.08;;;2.40;;
24086;SDS011;22893;50.572;7.234;2022-07-23T20:09:39;5.53;;;2.40;;
24086;SDS011;22893;50.572;7.234;2022-07-23T20:12:07;4.67;;;2.30;;
24086;SDS011;22893;50.572;7.234;2022-07-23T20:14:35;2.67;;;2.17;;
24086;SDS011;22893;50.572;7.234;2022-07-23T20:17:04;4.65;;;2.27;;
24086;SDS011;22893;50.572;7.234;2022-07-23T20:19:31;5.53;;;2.52;;
24086;SDS011;22893;50.572;7.234;2022-07-23T20:21:59;4.05;;;2.77;;
24086;SDS011;22893;50.572;7.234;2022-07-23T20:24:27;6.33;;;3.20;;
24086;SDS011;22893;50.572;7.234;2022-07-23T20:26:54;6.22;;;3.02;;
24086;SDS011;22893;50.572;7.234;2022-07-23T20:29:22;4.20;;;2.85;;
24086;SDS011;22893;50.572;7.234;2022-07-23T20:31:49;4.17;;;3.05;;
24086;SDS011;22893;50.572;7.234;2022-07-23T20:34:17;4.80;;;2.87;;
24086;SDS011;22893;50.572;7.234;2022-07-23T20:36:45;6.28;;;3.10;;
24086;SDS011;22893;50.572;7.234;2022-07-23T20:39:13;4.78;;;2.80;;
24086;SDS011;22893;50.572;7.234;2022-07-23T20:41:41;5.75;;;3.20;;
24086;SDS011;22893;50.572;7.234;2022-07-23T20:44:09;4.40;;;3.22;;
24086;SDS011;22893;50.572;7.234;2022-07-23T20:46:37;6.40;;;3.05;;
24086;SDS011;22893;50.572;7.234;2022-07-23T20:49:06;6.22;;;3.25;;
24086;SDS011;22893;50.572;7.234;2022-07-23T20:51:34;5.53;;;3.22;;
24086;SDS011;22893;50.572;7.234;2022-07-23T20:54:03;4.60;;;3.20;;
24086;SDS011;22893;50.572;7.234;2022-07-23T20:56:31;5.75;;;3.12;;
24086;SDS011;22893;50.572;7.234;2022-07-23T20:58:58;7.10;;;3.17;;
24086;SDS011;22893;50.572;7.234;2022-07-23T21:01:26;5.20;;;2.77;;
24086;SDS011;22893;50.572;7.234;2022-07-23T21:03:54;4.17;;;2.90;;
24086;SDS011;22893;50.572;7.234;2022-07-23T21:06:21;8.10;;;3.20;;
24086;SDS011;22893;50.572;7.234;2022-07-23T21:08:49;6.75;;;3.12;;
24086;SDS011;22893;50.572;7.234;2022-07-23T21:11:16;4.10;;;3.20;;
24086;SDS011;22893;50.572;7.234;2022-07-23T21:13:44;4.10;;;2.90;;
24086;SDS011;22893;50.572;7.234;2022-07-23T21:16:13;5.35;;;3.47;;
24086;SDS011;22893;50.572;7.234;2022-07-23T21:18:41;4.28;;;2.98;;
24086;SDS011;22893;50.572;7.234;2022-07-23T21:21:08;4.95;;;3.58;;
24086;SDS011;22893;50.572;7.234;2022-07-23T21:23:47;5.25;;;2.92;;
24086;SDS011;22893;50.572;7.234;2022-07-23T21:26:17;5.15;;;3.00;;
24086;SDS011;22893;50.572;7.234;2022-07-23T21:28:45;5.60;;;3.10;;
24086;SDS011;22893;50.572;7.234;2022-07-23T21:31:13;8.85;;;3.47;;
24086;SDS011;22893;50.572;7.234;2022-07-23T21:33:41;5.10;;;4.00;;
24086;SDS011;22893;50.572;7.234;2022-07-23T21:36:09;4.70;;;3.05;;
24086;SDS011;22893;50.572;7.234;2022-07-23T21:38:37;9.70;;;3.72;;
24086;SDS011;22893;50.572;7.234;2022-07-23T21:41:04;11.22;;;3.52;;
24086;SDS011;22893;50.572;7.234;2022-07-23T21:43:32;4.92;;;3.37;;
24086;SDS011;22893;50.572;7.234;2022-07-23T21:45:59;4.15;;;2.95;;
24086;SDS011;22893;50.572;7.234;2022-07-23T21:48:27;4.03;;;2.92;;
24086;SDS011;22893;50.572;7.234;2022-07-23T21:50:54;4.17;;;3.00;;
24086;SDS011;22893;50.572;7.234;2022-07-23T21:53:22;7.20;;;3.20;;
24086;SDS011;22893;50.572;7.234;2022-07-23T21:55:50;3.83;;;2.98;;
24086;SDS011;22893;50.572;7.234;2022-07-23T21:58:17;6.62;;;2.70;;
24086;SDS011;22893;50.572;7.234;2022-07-23T22:00:45;6.75;;;3.50;;
24086;SDS011;22893;50.572;7.234;2022-07-23T22:03:14;7.28;;;3.60;;
24086;SDS011;22893;50.572;7.234;2022-07-23T22:05:41;5.03;;;3.20;;
24086;SDS011;22893;50.572;7.234;2022-07-23T22:08:09;5.20;;;2.92;;
24086;SDS011;22893;50.572;7.234;2022-07-23T22:10:36;4.67;;;2.95;;
24086;SDS011;22893;50.572;7.234;2022-07-23T22:13:04;4.03;;;3.05;;
24086;SDS011;22893;50.572;7.234;2022-07-23T22:15:31;7.50;;;3.02;;
24086;SDS011;22893;50.572;7.234;2022-07-23T22:17:59;5.03;;;3.30;;
24086;SDS011;22893;50.572;7.234;2022-07-23T22:20:27;5.75;;;3.20;;
24086;SDS011;22893;50.572;7.234;2022-07-23T22:22:55;6.10;;;3.60;;
24086;SDS011;22893;50.572;7.234;2022-07-23T22:25:22;5.00;;;3.47;;
24086;SDS011;22893;50.572;7.234;2022-07-23T22:27:50;5.30;;;3.08;;
24086;SDS011;22893;50.572;7.234;2022-07-23T22:30:18;7.92;;;3.70;;
24086;SDS011;22893;50.572;7.234;2022-07-23T22:32:46;3.92;;;2.92;;
24086;SDS011;22893;50.572;7.234;2022-07-23T22:35:14;5.30;;;3.12;;
24086;SDS011;22893;50.572;7.234;2022-07-23T22:37:42;4.17;;;3.05;;
24086;SDS011;22893;50.572;7.234;2022-07-23T22:40:12;5.80;;;3.00;;
24086;SDS011;22893;50.572;7.234;2022-07-23T22:42:41;4.85;;;3.22;;
24086;SDS011;22893;50.572;7.234;2022-07-23T22:45:09;4.78;;;3.02;;
